Time;durP1;ratioP1;P1;durP2;ratioP2;P2;SDS_P1;SDS_P2;PMS_P1;PMS_P2;Temp;Humidity;BMP_temperature;BMP_pressure;BME280_temperature;BME280_humidity;BME280_pressure;Samples;Min_cycle;Max_cycle;Signal;HPM_P1;HPM_P2
2023/09/26 00:00:22;;;;;;;0.40;0.40;;;;;;;12.59;92.00;97463.13;29395;248;63005;-53
2023/09/26 00:00:54;;;;;;;0.50;0.50;;;;;;;12.56;92.18;97459.06;29395;219;63009;-54
2023/09/26 00:01:29;;;;;;;0.45;0.45;;;;;;;12.56;91.53;97461.78;29395;218;63017;-54
2023/09/26 00:02:01;;;;;;;0.50;0.50;;;;;;;12.56;91.58;97459.06;29395;233;63009;-54
2023/09/26 00:02:32;;;;;;;0.40;0.40;;;;;;;12.55;91.48;97460.16;29395;212;63005;-54
2023/09/26 00:03:06;;;;;;;0.40;0.40;;;;;;;12.54;91.57;97460.47;29395;205;63009;-53
2023/09/26 00:03:40;;;;;;;0.50;0.50;;;;;;;12.54;91.37;97455.03;29395;217;63004;-53
2023/09/26 00:04:11;;;;;;;0.50;0.50;;;;;;;12.53;91.50;97453.41;29395;227;63009;-54
2023/09/26 00:04:43;;;;;;;0.50;0.50;;;;;;;12.53;91.38;97450.69;29394;253;64009;-54
2023/09/26 00:05:14;;;;;;;0.50;0.50;;;;;;;12.52;91.84;97458.03;29395;226;63009;-53
2023/09/26 00:05:45;;;;;;;0.40;0.40;;;;;;;12.53;91.76;97458.84;29395;214;63004;-54
2023/09/26 00:06:24;;;;;;;0.50;0.50;;;;;;;12.53;91.56;97450.69;29395;231;63009;-54
2023/09/26 00:06:57;;;;;;;0.50;0.50;;;;;;;12.52;91.38;97449.88;29394;204;64009;-54
2023/09/26 00:07:28;;;;;;;0.50;0.50;;;;;;;12.53;91.51;97445.22;29395;224;63009;-53
2023/09/26 00:08:03;;;;;;;0.50;0.50;;;;;;;12.52;91.97;97451.78;29395;196;63005;-53
2023/09/26 00:08:34;;;;;;;0.50;0.50;;;;;;;12.49;92.42;97445.00;29395;250;63009;-54
2023/09/26 00:09:05;;;;;;;0.50;0.50;;;;;;;12.48;91.91;97446.09;29395;250;63005;-54
2023/09/26 00:09:37;;;;;;;0.47;0.47;;;;;;;12.48;91.88;97446.09;29395;223;63009;-54
2023/09/26 00:10:10;;;;;;;0.50;0.50;;;;;;;12.47;92.26;97447.22;29395;296;63004;-54
2023/09/26 00:10:42;;;;;;;0.47;0.47;;;;;;;12.47;92.09;97440.97;29395;202;63009;-54
2023/09/26 00:11:15;;;;;;;0.50;0.50;;;;;;;12.45;92.34;97441.28;29394;206;64009;-53
2023/09/26 00:11:46;;;;;;;0.50;0.50;;;;;;;12.45;91.92;97446.72;29395;227;63009;-53
2023/09/26 00:12:18;;;;;;;0.40;0.40;;;;;;;12.45;92.22;97441.28;29395;207;63004;-53
2023/09/26 00:12:50;;;;;;;0.50;0.50;;;;;;;12.45;92.05;97446.72;29395;224;63004;-54
2023/09/26 00:13:21;;;;;;;0.50;0.50;;;;;;;12.44;91.98;97445.09;29395;300;63004;-54
2023/09/26 00:13:52;;;;;;;0.50;0.50;;;;;;;12.45;91.99;97446.72;29395;211;63018;-54
2023/09/26 00:14:24;;;;;;;0.50;0.50;;;;;;;12.44;92.00;97442.38;29395;209;63005;-54
2023/09/26 00:14:55;;;;;;;0.40;0.40;;;;;;;12.45;92.30;97444.00;29395;231;63009;-54
2023/09/26 00:15:26;;;;;;;0.40;0.40;;;;;;;12.44;92.42;97444.28;29395;216;63005;-54
2023/09/26 00:15:58;;;;;;;0.50;0.50;;;;;;;12.45;92.73;97452.16;29395;196;63009;-69
2023/09/26 00:16:29;;;;;;;0.50;0.50;;;;;;;12.43;92.37;97446.19;29394;214;64009;-54
2023/09/26 00:17:01;;;;;;;0.40;0.40;;;;;;;12.43;92.10;97442.66;29395;208;63009;-54
2023/09/26 00:17:32;;;;;;;0.50;0.50;;;;;;;12.43;92.33;97448.91;29395;210;63004;-55
2023/09/26 00:18:05;;;;;;;0.40;0.40;;;;;;;12.43;92.43;97443.47;29395;211;63009;-54
2023/09/26 00:18:40;;;;;;;0.50;0.50;;;;;;;12.43;92.55;97443.47;29395;210;63004;-54
2023/09/26 00:19:11;;;;;;;0.50;0.50;;;;;;;12.43;92.45;97448.91;29395;233;63020;-54
2023/09/26 00:19:46;;;;;;;0.50;0.50;;;;;;;12.42;92.47;97447.28;29395;249;63004;-54
2023/09/26 00:20:28;;;;;;;0.50;0.50;;;;;;;12.42;92.52;97441.84;29395;197;63004;-54
2023/09/26 00:21:01;;;;;;;0.50;0.50;;;;;;;12.41;92.12;97445.66;29394;203;64009;-54
2023/09/26 00:21:32;;;;;;;0.40;0.40;;;;;;;12.42;92.46;97447.28;29395;215;63009;-55
2023/09/26 00:22:03;;;;;;;0.50;0.50;;;;;;;12.41;92.29;97443.75;29394;221;64009;-56
2023/09/26 00:22:36;;;;;;;0.50;0.50;;;;;;;12.41;92.50;97445.66;29395;251;63009;-54
2023/09/26 00:23:07;;;;;;;0.50;0.50;;;;;;;12.41;92.36;97445.66;29395;202;63005;-54
2023/09/26 00:23:39;;;;;;;0.50;0.50;;;;;;;12.42;92.64;97441.84;29395;213;63005;-55
2023/09/26 00:24:10;;;;;;;0.50;0.50;;;;;;;12.42;92.52;97450.00;29395;209;63005;-54
2023/09/26 00:24:41;;;;;;;0.50;0.50;;;;;;;12.43;92.73;97438.03;29395;203;63009;-54
2023/09/26 00:25:12;;;;;;;0.50;0.50;;;;;;;12.44;92.87;97444.28;29395;203;63000;-54
2023/09/26 00:25:45;;;;;;;0.50;0.50;;;;;;;12.43;92.46;97438.03;29394;216;64013;-54
2023/09/26 00:26:23;;;;;;;0.40;0.40;;;;;;;12.43;92.64;97443.47;29395;247;63004;-54
2023/09/26 00:26:54;;;;;;;0.45;0.45;;;;;;;12.43;92.59;97443.47;29395;234;63009;-54
2023/09/26 00:27:26;;;;;;;0.50;0.50;;;;;;;12.43;92.41;97440.75;29395;246;63004;-54
2023/09/26 00:27:57;;;;;;;0.50;0.50;;;;;;;12.43;92.29;97438.03;29395;246;63014;-54
2023/09/26 00:28:28;;;;;;;0.50;0.50;;;;;;;12.42;92.39;97441.84;29395;208;63005;-54
2023/09/26 00:28:59;;;;;;;0.50;0.50;;;;;;;12.41;92.64;97438.31;29395;214;63009;-68
2023/09/26 00:29:31;;;;;;;0.50;0.50;;;;;;;12.42;92.47;97444.56;29395;210;63005;-54
2023/09/26 00:30:04;;;;;;;0.50;0.50;;;;;;;12.41;92.52;97441.03;29394;218;64013;-54
2023/09/26 00:30:35;;;;;;;0.50;0.50;;;;;;;12.41;92.73;97434.78;29395;225;63005;-54
2023/09/26 00:31:06;;;;;;;0.40;0.40;;;;;;;12.40;92.37;97444.84;29395;210;63009;-54
2023/09/26 00:31:38;;;;;;;0.50;0.50;;;;;;;12.39;92.54;97437.78;29395;238;63005;-54
2023/09/26 00:32:09;;;;;;;0.50;0.50;;;;;;;12.40;92.56;97436.69;29395;199;63005;-54
2023/09/26 00:32:41;;;;;;;0.40;0.40;;;;;;;12.40;92.74;97438.59;29395;235;63004;-54
2023/09/26 00:33:12;;;;;;;0.50;0.50;;;;;;;12.40;92.95;97433.16;29395;202;63026;-68
2023/09/26 00:33:44;;;;;;;0.50;0.50;;;;;;;12.40;92.48;97441.31;29395;206;63004;-54
2023/09/26 00:34:15;;;;;;;0.50;0.50;;;;;;;12.42;92.92;97439.13;29395;197;63009;-54
2023/09/26 00:34:47;;;;;;;0.40;0.40;;;;;;;12.40;92.95;97439.41;29395;202;63004;-54
2023/09/26 00:35:19;;;;;;;0.50;0.50;;;;;;;12.39;93.11;97436.97;29394;202;64013;-54
2023/09/26 00:35:50;;;;;;;0.40;0.40;;;;;;;12.39;92.66;97435.06;29395;210;63005;-54
2023/09/26 00:36:22;;;;;;;0.50;0.50;;;;;;;12.39;92.82;97435.06;29395;249;63009;-54
2023/09/26 00:36:53;;;;;;;0.50;0.50;;;;;;;12.39;93.23;97431.53;29395;227;63005;-54
2023/09/26 00:37:24;;;;;;;0.50;0.50;;;;;;;12.37;93.23;97433.75;29395;254;63009;-54
2023/09/26 00:37:56;;;;;;;0.45;0.45;;;;;;;12.37;93.11;97440.00;29395;270;63005;-55
2023/09/26 00:38:27;;;;;;;0.50;0.50;;;;;;;12.37;92.88;97439.19;29394;222;64009;-54
2023/09/26 00:38:58;;;;;;;0.50;0.50;;;;;;;12.37;92.72;97439.19;29395;208;63005;-54
2023/09/26 00:39:30;;;;;;;0.50;0.50;;;;;;;12.37;93.00;97436.47;29395;250;63015;-54
2023/09/26 00:40:02;;;;;;;0.45;0.45;;;;;;;12.37;92.96;97439.19;29395;222;63004;-67
2023/09/26 00:40:33;;;;;;;0.50;0.50;;;;;;;12.36;92.98;97435.66;29394;249;64013;-54
2023/09/26 00:41:09;;;;;;;0.50;0.50;;;;;;;12.36;92.66;97440.28;29395;212;63000;-68
2023/09/26 00:41:40;;;;;;;0.40;0.40;;;;;;;12.35;92.90;97441.38;29395;232;63009;-53
2023/09/26 00:42:11;;;;;;;0.50;0.50;;;;;;;12.33;93.47;97441.69;29395;231;63004;-54
2023/09/26 00:42:43;;;;;;;0.50;0.50;;;;;;;12.32;93.62;97440.06;29395;278;63008;-68
2023/09/26 00:43:23;;;;;;;0.50;0.50;;;;;;;12.31;94.32;97434.91;29395;205;63005;-54
2023/09/26 00:43:55;;;;;;;0.50;0.50;;;;;;;12.29;94.56;97435.19;29395;229;63009;-68
2023/09/26 00:44:26;;;;;;;0.50;0.50;;;;;;;12.28;95.18;97435.47;29395;256;63005;-54
2023/09/26 00:44:57;;;;;;;0.50;0.50;;;;;;;12.27;95.42;97428.41;29394;216;64013;-54
2023/09/26 00:45:32;;;;;;;0.50;0.50;;;;;;;12.26;95.68;97434.97;29395;228;63005;-54
2023/09/26 00:46:05;;;;;;;0.50;0.50;;;;;;;12.24;95.74;97434.44;29395;208;63009;-54
2023/09/26 00:46:36;;;;;;;0.50;0.50;;;;;;;12.23;95.05;97432.81;29395;218;63005;-54
2023/09/26 00:47:08;;;;;;;0.47;0.47;;;;;;;12.22;95.11;97437.44;29395;243;63009;-53
2023/09/26 00:47:41;;;;;;;0.40;0.40;;;;;;;12.21;95.11;97433.09;29395;357;63004;-54
2023/09/26 00:48:12;;;;;;;0.50;0.50;;;;;;;12.20;95.20;97428.75;29395;220;63009;-54
2023/09/26 00:48:44;;;;;;;0.50;0.50;;;;;;;12.19;95.17;97437.22;29395;199;63004;-54
2023/09/26 00:49:15;;;;;;;0.40;0.40;;;;;;;12.19;94.89;97431.78;29394;234;64013;-54
2023/09/26 00:49:46;;;;;;;0.40;0.40;;;;;;;12.17;94.53;97440.22;29395;241;63004;-54
2023/09/26 00:50:22;;;;;;;0.50;0.50;;;;;;;12.18;94.83;97435.59;29395;232;63008;-54
2023/09/26 00:50:54;;;;;;;0.50;0.50;;;;;;;12.19;94.82;97432.56;29394;197;64009;-55
2023/09/26 00:51:25;;;;;;;0.50;0.50;;;;;;;12.19;94.38;97437.22;29395;246;63009;-54
2023/09/26 00:51:59;;;;;;;0.50;0.50;;;;;;;12.18;94.42;97435.59;29395;213;63005;-68
2023/09/26 00:52:31;;;;;;;0.50;0.50;;;;;;;12.19;94.24;97431.78;29395;213;63009;-54
2023/09/26 00:53:04;;;;;;;0.40;0.40;;;;;;;12.20;94.24;97438.84;29395;256;63005;-54
2023/09/26 00:53:38;;;;;;;0.50;0.50;;;;;;;12.20;94.21;97436.12;29395;242;63009;-53
2023/09/26 00:54:11;;;;;;;0.50;0.50;;;;;;;12.19;94.34;97438.03;29394;225;64009;-54
2023/09/26 00:54:42;;;;;;;0.50;0.50;;;;;;;12.18;94.37;97435.59;29395;224;63009;-54
2023/09/26 00:55:17;;;;;;;0.40;0.40;;;;;;;12.15;94.31;97434.25;29395;202;63004;-54
2023/09/26 00:55:51;;;;;;;0.50;0.50;;;;;;;12.11;95.00;97437.88;29395;246;63009;-54
2023/09/26 00:56:24;;;;;;;0.50;0.50;;;;;;;12.05;96.04;97443.38;29395;267;63004;-54
2023/09/26 00:56:57;;;;;;;0.50;0.50;;;;;;;12.00;95.64;97440.69;29395;220;63009;-54
2023/09/26 00:57:29;;;;;;;0.50;0.50;;;;;;;11.99;95.21;97444.50;29395;214;63004;-54
2023/09/26 00:58:02;;;;;;;0.50;0.50;;;;;;;12.00;95.61;97446.13;29395;224;63008;-54
2023/09/26 00:58:34;;;;;;;0.50;0.50;;;;;;;11.99;95.48;97441.78;29395;216;63005;-54
2023/09/26 00:59:07;;;;;;;0.50;0.50;;;;;;;11.99;95.34;97449.94;29395;330;63009;-54
2023/09/26 00:59:39;;;;;;;0.43;0.43;;;;;;;11.99;95.39;97439.06;29394;231;64009;-54
2023/09/26 01:00:15;;;;;;;0.50;0.50;;;;;;;12.00;95.47;97439.87;29395;229;63009;-54
2023/09/26 01:00:50;;;;;;;0.50;0.50;;;;;;;11.99;95.52;97444.50;29395;207;63016;-54
2023/09/26 01:01:26;;;;;;;0.50;0.50;;;;;;;11.99;95.85;97449.13;29395;202;63009;-54
2023/09/26 01:01:58;;;;;;;0.50;0.50;;;;;;;11.96;95.62;97436.94;29395;239;63005;-54
2023/09/26 01:02:32;;;;;;;0.50;0.50;;;;;;;11.97;95.50;97446.72;29395;228;63009;-54
2023/09/26 01:03:04;;;;;;;0.50;0.50;;;;;;;11.95;95.37;97438.03;29395;202;63004;-54
2023/09/26 01:03:39;;;;;;;0.50;0.50;;;;;;;11.95;95.68;97432.59;29395;243;63009;-54
2023/09/26 01:04:11;;;;;;;0.50;0.50;;;;;;;11.97;95.67;97440.47;29395;249;63000;-54
2023/09/26 01:04:43;;;;;;;0.50;0.50;;;;;;;11.96;95.36;97445.09;29394;244;64013;-55
2023/09/26 01:05:15;;;;;;;0.50;0.50;;;;;;;11.97;95.41;97435.81;29395;205;63004;-54
2023/09/26 01:05:47;;;;;;;0.50;0.50;;;;;;;11.99;95.65;97435.53;29395;272;63009;-54
2023/09/26 01:06:22;;;;;;;0.50;0.50;;;;;;;11.99;95.48;97441.78;29395;205;63005;-54
2023/09/26 01:06:53;;;;;;;0.50;0.50;;;;;;;11.99;95.13;97443.69;29395;265;63009;-54
2023/09/26 01:07:25;;;;;;;0.50;0.50;;;;;;;12.01;95.25;97442.31;29395;220;63005;-54
2023/09/26 01:07:56;;;;;;;0.50;0.50;;;;;;;12.01;95.47;97442.31;29395;203;63009;-55
2023/09/26 01:08:32;;;;;;;0.50;0.50;;;;;;;12.02;95.14;97448.56;29395;239;63018;-54
2023/09/26 01:09:05;;;;;;;0.50;0.50;;;;;;;12.01;95.35;97442.31;29395;233;63009;-54
2023/09/26 01:09:38;;;;;;;0.50;0.50;;;;;;;12.01;94.93;97442.31;29395;216;63005;-54
2023/09/26 01:10:12;;;;;;;0.50;0.50;;;;;;;12.01;94.93;97441.50;29394;265;64013;-53
2023/09/26 01:10:45;;;;;;;0.50;0.50;;;;;;;12.00;95.05;97440.69;29395;204;63004;-54
2023/09/26 01:11:17;;;;;;;0.50;0.50;;;;;;;12.00;95.39;97443.41;29395;202;63009;-54
2023/09/26 01:11:48;;;;;;;0.50;0.50;;;;;;;12.01;95.01;97446.94;29395;228;63004;-54
2023/09/26 01:12:23;;;;;;;0.50;0.50;;;;;;;12.01;95.50;97438.78;29395;232;63009;-55
2023/09/26 01:12:56;;;;;;;0.50;0.50;;;;;;;12.01;95.32;97439.59;29395;208;63014;-54
2023/09/26 01:13:27;;;;;;;0.50;0.50;;;;;;;12.01;95.34;97436.88;29395;245;63009;-54
2023/09/26 01:13:58;;;;;;;0.50;0.50;;;;;;;12.02;94.89;97443.94;29395;218;63005;-54
2023/09/26 01:14:30;;;;;;;0.50;0.50;;;;;;;12.02;95.29;97443.13;29395;239;63009;-54
2023/09/26 01:15:03;;;;;;;0.50;0.50;;;;;;;12.02;95.28;97449.38;29395;196;63005;-54
2023/09/26 01:15:37;;;;;;;0.50;0.50;;;;;;;12.02;95.11;97438.50;29394;246;64013;-54
2023/09/26 01:16:19;;;;;;;0.50;0.50;;;;;;;12.02;95.35;97441.22;29395;212;63011;-54
2023/09/26 01:16:56;;;;;;;0.50;0.50;;;;;;;12.02;95.32;97435.78;29395;204;63009;-68
2023/09/26 01:17:31;;;;;;;0.50;0.50;;;;;;;12.02;95.27;97443.94;29395;210;63004;-54
2023/09/26 01:18:11;;;;;;;0.50;0.50;;;;;;;12.02;95.56;97435.78;29395;254;63009;-54
2023/09/26 01:18:43;;;;;;;0.50;0.50;;;;;;;12.02;95.14;97435.78;29395;235;63004;-54
2023/09/26 01:19:14;;;;;;;0.50;0.50;;;;;;;12.02;95.06;97437.69;29395;221;63019;-54
2023/09/26 01:19:46;;;;;;;0.50;0.50;;;;;;;12.03;95.38;97437.41;29395;226;63004;-55
2023/09/26 01:20:19;;;;;;;0.50;0.50;;;;;;;12.03;95.36;97433.88;29395;224;63008;-54
2023/09/26 01:20:51;;;;;;;0.50;0.50;;;;;;;12.02;95.56;97438.50;29394;213;64009;-54
2023/09/26 01:21:23;;;;;;;0.50;0.50;;;;;;;12.02;96.00;97438.50;29395;205;63009;-55
2023/09/26 01:21:54;;;;;;;0.50;0.50;;;;;;;12.02;96.48;97432.25;29395;220;63005;-54
2023/09/26 01:22:31;;;;;;;0.50;0.50;;;;;;;12.01;96.22;97436.88;29395;208;63023;-69
2023/09/26 01:23:06;;;;;;;0.50;0.50;;;;;;;12.01;96.28;97436.06;29395;251;63005;-54
2023/09/26 01:23:42;;;;;;;0.50;0.50;;;;;;;12.00;96.03;97434.44;29395;196;63009;-54
2023/09/26 01:24:15;;;;;;;0.50;0.50;;;;;;;11.99;95.85;97441.78;29395;219;63004;-55
2023/09/26 01:24:48;;;;;;;0.50;0.50;;;;;;;11.99;95.99;97433.63;29395;209;63009;-54
2023/09/26 01:25:19;;;;;;;0.50;0.50;;;;;;;12.01;95.95;97438.78;29395;216;63017;-54
2023/09/26 01:25:50;;;;;;;0.50;0.50;;;;;;;12.00;95.80;97440.69;29395;213;64013;-55
2023/09/26 01:26:22;;;;;;;0.47;0.47;;;;;;;12.01;96.13;97446.94;29396;202;63004;-54
2023/09/26 01:26:55;;;;;;;0.50;0.50;;;;;;;12.00;95.79;97440.69;29396;212;63008;-55
2023/09/26 01:27:26;;;;;;;0.50;0.50;;;;;;;12.01;95.88;97442.31;29396;231;63004;-54
2023/09/26 01:28:01;;;;;;;0.50;0.50;;;;;;;12.00;95.65;97440.69;29396;232;63009;-54
2023/09/26 01:28:32;;;;;;;0.50;0.50;;;;;;;11.99;95.92;97439.06;29396;232;63005;-54
2023/09/26 01:29:06;;;;;;;0.50;0.50;;;;;;;11.99;96.22;97441.78;29395;220;63009;-54
2023/09/26 01:29:38;;;;;;;0.50;0.50;;;;;;;11.99;96.04;97444.50;29396;264;63016;-54
2023/09/26 01:30:11;;;;;;;0.50;0.50;;;;;;;11.98;95.88;97442.88;29396;236;63009;-54
2023/09/26 01:30:42;;;;;;;0.50;0.50;;;;;;;11.99;96.12;97439.06;29395;253;63005;-54
2023/09/26 01:31:14;;;;;;;0.50;0.50;;;;;;;11.98;96.20;97437.44;29395;205;64013;-54
2023/09/26 01:31:46;;;;;;;0.50;0.50;;;;;;;11.98;95.89;97436.62;29396;379;63012;-55
2023/09/26 01:32:17;;;;;;;0.50;0.50;;;;;;;11.96;96.15;97434.19;29396;198;63024;-54
2023/09/26 01:32:48;;;;;;;0.50;0.50;;;;;;;11.96;95.79;97438.84;29396;271;63004;-54
2023/09/26 01:33:21;;;;;;;0.50;0.50;;;;;;;11.95;95.92;97437.22;29396;204;63009;-55
2023/09/26 01:33:53;;;;;;;0.50;0.50;;;;;;;11.94;96.06;97435.59;29396;197;63004;-68
2023/09/26 01:34:24;;;;;;;0.50;0.50;;;;;;;11.94;96.20;97430.97;29396;210;63008;-54
2023/09/26 01:34:55;;;;;;;0.50;0.50;;;;;;;11.94;96.38;97433.69;29396;214;63004;-54
2023/09/26 01:35:27;;;;;;;0.50;0.50;;;;;;;11.95;96.15;97437.22;29396;261;63009;-54
2023/09/26 01:35:58;;;;;;;0.50;0.50;;;;;;;11.95;96.21;97431.78;29396;217;63005;-55
2023/09/26 01:36:31;;;;;;;0.50;0.50;;;;;;;11.95;96.22;97431.78;29395;226;64014;-53
2023/09/26 01:37:03;;;;;;;0.50;0.50;;;;;;;11.95;96.31;97432.59;29396;236;63005;-54
2023/09/26 01:37:35;;;;;;;0.50;0.50;;;;;;;11.95;96.47;97432.59;29396;198;63009;-53
2023/09/26 01:38:06;;;;;;;0.40;0.40;;;;;;;11.95;96.37;97431.78;29396;219;63005;-54
2023/09/26 01:38:37;;;;;;;0.50;0.50;;;;;;;11.97;95.99;97432.28;29396;205;63009;-56
2023/09/26 01:39:08;;;;;;;0.50;0.50;;;;;;;11.97;96.38;97435.81;29396;218;63005;-54
2023/09/26 01:39:40;;;;;;;0.50;0.50;;;;;;;11.98;96.14;97434.72;29396;202;63009;-54
2023/09/26 01:40:11;;;;;;;0.50;0.50;;;;;;;11.98;95.98;97432.00;29396;210;63004;-56
2023/09/26 01:40:43;;;;;;;0.50;0.50;;;;;;;12.00;96.01;97434.44;29396;315;63009;-53
2023/09/26 01:41:14;;;;;;;0.50;0.50;;;;;;;12.01;96.27;97441.50;29396;202;63009;-55
2023/09/26 01:41:46;;;;;;;0.50;0.50;;;;;;;12.00;96.28;97439.87;29395;202;64013;-54
2023/09/26 01:42:17;;;;;;;0.50;0.50;;;;;;;12.00;96.13;97440.69;29396;206;63004;-55
2023/09/26 01:42:49;;;;;;;0.50;0.50;;;;;;;12.00;96.43;97440.69;29396;214;63009;-55
2023/09/26 01:43:20;;;;;;;0.50;0.50;;;;;;;12.01;96.24;97436.88;29396;204;63005;-53
2023/09/26 01:43:51;;;;;;;0.40;0.40;;;;;;;12.02;96.46;97434.97;29396;197;63009;-54
2023/09/26 01:44:23;;;;;;;0.45;0.45;;;;;;;12.01;96.51;97434.16;29396;205;63005;-53
2023/09/26 01:44:54;;;;;;;0.50;0.50;;;;;;;12.00;96.83;97429.81;29396;228;63016;-54
2023/09/26 01:45:26;;;;;;;15.98;5.45;;;;;;;12.03;96.60;97429.25;29391;211;64005;-53
2023/09/26 01:45:57;;;;;;;0.50;0.50;;;;;;;12.03;97.01;97434.69;29396;211;63009;-53
2023/09/26 01:46:28;;;;;;;0.50;0.50;;;;;;;12.03;96.55;97429.25;29396;204;63005;-53
2023/09/26 01:46:59;;;;;;;0.50;0.50;;;;;;;12.02;96.56;97435.78;29395;246;64013;-53
2023/09/26 01:47:53;;;;;;;0.50;0.50;;;;;;;12.00;96.67;97424.37;29396;197;63004;-53
2023/09/26 01:48:25;;;;;;;0.50;0.50;;;;;;;11.99;96.75;97433.63;29396;208;63009;-55
2023/09/26 01:48:56;;;;;;;0.50;0.50;;;;;;;11.99;96.46;97436.34;29395;206;64009;-54
2023/09/26 01:49:30;;;;;;;0.50;0.50;;;;;;;12.00;96.44;97439.87;29396;265;63008;-55
2023/09/26 01:50:01;;;;;;;0.50;0.50;;;;;;;11.99;96.64;97433.63;29396;212;63004;-54
2023/09/26 01:50:35;;;;;;;0.50;0.50;;;;;;;11.99;96.40;97435.53;29396;261;63009;-54
2023/09/26 01:51:06;;;;;;;0.50;0.50;;;;;;;12.00;96.16;97437.97;29395;214;64009;-54
2023/09/26 01:51:38;;;;;;;0.50;0.50;;;;;;;12.00;96.46;97429.00;29396;219;63009;-54
2023/09/26 01:52:10;;;;;;;0.50;0.50;;;;;;;12.00;96.18;97435.25;29396;203;63005;-54
2023/09/26 01:52:42;;;;;;;0.50;0.50;;;;;;;12.00;96.10;97440.69;29395;215;64013;-55
2023/09/26 01:53:14;;;;;;;0.50;0.50;;;;;;;12.00;96.20;97435.25;29396;215;63005;-54
2023/09/26 01:53:45;;;;;;;0.50;0.50;;;;;;;12.01;95.78;97434.16;29396;222;63009;-54
2023/09/26 01:54:16;;;;;;;0.50;0.50;;;;;;;12.00;95.75;97431.72;29396;232;63005;-54
2023/09/26 01:54:48;;;;;;;0.50;0.50;;;;;;;12.00;95.90;97435.25;29396;221;63009;-54
2023/09/26 01:55:21;;;;;;;0.50;0.50;;;;;;;12.01;95.51;97436.88;29395;220;64009;-54
2023/09/26 01:55:57;;;;;;;0.50;0.50;;;;;;;12.01;95.69;97436.06;29396;274;63009;-54
2023/09/26 01:56:32;;;;;;;0.50;0.50;;;;;;;12.02;95.36;97432.25;29396;199;63004;-54
2023/09/26 01:57:06;;;;;;;0.50;0.50;;;;;;;12.01;95.38;97439.59;29396;210;63026;-54
2023/09/26 01:57:37;;;;;;;0.50;0.50;;;;;;;12.01;95.57;97433.34;29396;229;63004;-54
2023/09/26 01:58:08;;;;;;;0.50;0.50;;;;;;;12.02;95.54;97433.06;29396;242;63009;-54
2023/09/26 01:58:39;;;;;;;0.50;0.50;;;;;;;12.01;95.23;97431.44;29396;211;63005;-54
2023/09/26 01:59:11;;;;;;;0.50;0.50;;;;;;;12.01;95.20;97436.06;29396;213;63009;-54
2023/09/26 01:59:42;;;;;;;0.50;0.50;;;;;;;12.00;95.26;97429.81;29396;235;63005;-54
2023/09/26 02:00:14;;;;;;;0.50;0.50;;;;;;;12.00;95.44;97429.00;29396;236;63009;-54
2023/09/26 02:00:45;;;;;;;0.50;0.50;;;;;;;12.00;95.47;97435.25;29395;214;64009;-54
2023/09/26 02:01:17;;;;;;;0.50;0.50;;;;;;;12.00;95.32;97429.81;29395;229;64013;-54
2023/09/26 02:01:48;;;;;;;0.50;0.50;;;;;;;11.99;95.31;97432.81;29396;363;63005;-54
2023/09/26 02:02:20;;;;;;;0.50;0.50;;;;;;;11.96;95.62;97423.31;29396;330;63009;-54
2023/09/26 02:02:51;;;;;;;0.50;0.50;;;;;;;11.97;95.49;97424.13;29396;241;63004;-68
2023/09/26 02:03:23;;;;;;;0.50;0.50;;;;;;;11.97;95.39;97426.84;29396;212;63009;-53
2023/09/26 02:03:54;;;;;;;0.50;0.50;;;;;;;11.96;95.68;97431.50;29396;197;63004;-54
2023/09/26 02:04:25;;;;;;;0.47;0.47;;;;;;;11.96;95.47;97422.50;29396;254;63009;-54
2023/09/26 02:04:56;;;;;;;0.50;0.50;;;;;;;11.96;95.74;97417.87;29396;216;63004;-53
2023/09/26 02:05:27;;;;;;;0.50;0.50;;;;;;;11.97;95.58;97419.50;29395;225;64014;-54
2023/09/26 02:05:59;;;;;;;0.50;0.50;;;;;;;11.97;95.48;97424.94;29396;225;63005;-55
2023/09/26 02:06:30;;;;;;;0.50;0.50;;;;;;;11.98;95.66;97426.56;29395;217;64014;-54
2023/09/26 02:07:01;;;;;;;0.50;0.50;;;;;;;11.96;95.46;97420.59;29396;211;63005;-54
2023/09/26 02:07:32;;;;;;;0.50;0.50;;;;;;;11.96;95.76;97423.31;29396;211;63009;-54
2023/09/26 02:08:05;;;;;;;0.50;0.50;;;;;;;11.96;95.37;97415.16;29396;252;63005;-54
2023/09/26 02:08:36;;;;;;;0.50;0.50;;;;;;;11.97;95.72;97415.97;29396;222;63009;-54
2023/09/26 02:09:07;;;;;;;0.50;0.50;;;;;;;11.96;95.41;97415.16;29397;233;63005;-54
2023/09/26 02:09:38;;;;;;;0.50;0.50;;;;;;;11.96;95.65;97415.16;29397;261;63009;-54
2023/09/26 02:10:10;;;;;;;0.43;0.43;;;;;;;11.97;95.38;97418.69;29397;203;63004;-53
2023/09/26 02:10:42;;;;;;;0.50;0.50;;;;;;;11.97;95.74;97418.69;29397;290;63009;-54
2023/09/26 02:11:13;;;;;;;0.50;0.50;;;;;;;11.96;95.53;97412.44;29397;241;63004;-54
2023/09/26 02:11:45;;;;;;;0.50;0.50;;;;;;;11.98;95.51;97410.25;29396;210;64013;-53
2023/09/26 02:12:17;;;;;;;0.50;0.50;;;;;;;11.97;95.38;97418.69;29397;218;63004;-54
2023/09/26 02:12:50;;;;;;;0.50;0.50;;;;;;;11.96;95.86;97420.59;29397;201;63008;-54
2023/09/26 02:13:22;;;;;;;0.50;0.50;;;;;;;11.95;95.61;97420.91;29397;232;63005;-54
2023/09/26 02:13:53;;;;;;;0.50;0.50;;;;;;;11.95;95.72;97418.97;29397;206;63009;-54
2023/09/26 02:14:25;;;;;;;0.50;0.50;;;;;;;11.94;95.83;97414.66;29397;205;63005;-54
2023/09/26 02:14:57;;;;;;;0.50;0.50;;;;;;;11.94;96.34;97420.09;29397;197;63009;-54
2023/09/26 02:15:28;;;;;;;0.50;0.50;;;;;;;11.94;96.40;97420.09;29397;263;63005;-55
2023/09/26 02:16:00;;;;;;;0.50;0.50;;;;;;;11.93;97.23;97409.50;29397;237;63009;-54
2023/09/26 02:16:32;;;;;;;0.50;0.50;;;;;;;11.92;97.12;97416.84;29397;228;63009;-54
2023/09/26 02:17:03;;;;;;;0.50;0.50;;;;;;;11.92;97.65;97422.28;29396;238;64013;-54
2023/09/26 02:17:39;;;;;;;0.50;0.50;;;;;;;11.90;98.08;97421.75;29397;206;63004;-54
2023/09/26 02:18:11;;;;;;;0.50;0.50;;;;;;;11.89;98.60;97422.84;29396;212;64013;-54
2023/09/26 02:18:43;;;;;;;0.50;0.50;;;;;;;11.87;98.47;97419.59;29397;228;63007;-54
2023/09/26 02:19:14;;;;;;;0.50;0.50;;;;;;;11.86;98.85;97418.00;29397;196;63008;-54
2023/09/26 02:19:45;;;;;;;0.50;0.50;;;;;;;11.84;98.62;97420.19;29397;202;63004;-55
2023/09/26 02:20:19;;;;;;;0.50;0.50;;;;;;;11.83;98.24;97415.03;29397;268;63008;-54
2023/09/26 02:20:51;;;;;;;0.50;0.50;;;;;;;11.81;98.13;97420.75;29397;246;63005;-54
2023/09/26 02:21:22;;;;;;;0.50;0.50;;;;;;;11.79;98.79;97414.78;29396;246;64013;-54
2023/09/26 02:21:53;;;;;;;0.50;0.50;;;;;;;11.77;98.75;97414.31;29397;238;63011;-54
2023/09/26 02:22:24;;;;;;;0.50;0.50;;;;;;;11.75;98.79;97417.28;29396;232;63009;-54
2023/09/26 02:22:57;;;;;;;0.50;0.50;;;;;;;11.73;98.98;97411.31;29396;239;63005;-53
2023/09/26 02:23:28;;;;;;;0.50;0.50;;;;;;;11.72;98.87;97412.41;29395;273;64013;-53
2023/09/26 02:23:59;;;;;;;0.47;0.47;;;;;;;11.72;98.45;97414.31;29397;199;63008;-54
2023/09/26 02:24:31;;;;;;;0.50;0.50;;;;;;;11.72;98.12;97414.31;29396;204;63009;-55
2023/09/26 02:25:03;;;;;;;0.50;0.50;;;;;;;11.72;97.97;97411.59;29396;226;63015;-54
2023/09/26 02:25:34;;;;;;;0.50;0.50;;;;;;;11.72;97.98;97417.03;29396;213;63014;-54
2023/09/26 02:26:06;;;;;;;0.50;0.50;;;;;;;11.72;98.10;97406.97;29397;218;63004;-54
2023/09/26 02:26:37;;;;;;;0.50;0.50;;;;;;;11.72;98.14;97411.59;29396;223;63008;-54
2023/09/26 02:27:09;;;;;;;0.50;0.50;;;;;;;11.72;97.65;97412.41;29395;211;64009;-54
2023/09/26 02:27:43;;;;;;;0.50;0.50;;;;;;;11.73;97.67;97407.78;29396;259;63026;-54
2023/09/26 02:28:14;;;;;;;0.50;0.50;;;;;;;11.74;97.83;97409.41;29396;229;63005;-54
2023/09/26 02:28:45;;;;;;;0.50;0.50;;;;;;;11.73;97.59;97407.78;29396;259;63009;-54
2023/09/26 02:29:16;;;;;;;0.50;0.50;;;;;;;11.73;97.61;97414.03;29395;197;64009;-54
2023/09/26 02:29:47;;;;;;;0.50;0.50;;;;;;;11.74;97.72;97409.41;29396;229;63009;-54
2023/09/26 02:30:24;;;;;;;0.50;0.50;;;;;;;11.75;97.49;97411.03;29396;203;63005;-55
2023/09/26 02:30:55;;;;;;;0.50;0.50;;;;;;;11.74;97.58;97415.66;29396;218;63009;-53
2023/09/26 02:31:26;;;;;;;0.50;0.50;;;;;;;11.75;97.78;97413.75;29396;196;63004;-53
2023/09/26 02:31:57;;;;;;;0.50;0.50;;;;;;;11.75;97.56;97411.03;29396;241;63009;-53
2023/09/26 02:32:29;;;;;;;0.50;0.50;;;;;;;11.75;97.34;97405.59;29396;261;63004;-53
2023/09/26 02:33:00;;;;;;;0.50;0.50;;;;;;;11.77;97.45;97411.59;29396;226;63009;-54
2023/09/26 02:33:32;;;;;;;0.50;0.50;;;;;;;11.77;97.54;97408.87;29396;245;63004;-54
2023/09/26 02:34:03;;;;;;;0.50;0.50;;;;;;;11.77;97.31;97414.31;29395;218;64013;-54